Aérodrome :
LOGIN :

S'inscrire | Disclaimer

   EN    FR    IT 

 










Légende :    VFR   VFR Marginal   IFR   IFR Intensif   IFR Très Intensif
Visi : 
Plafond : 
>= 8 km
>= 3000ft
5 à 8 km
1000 à 3000 ft
1500m à 5 km
500 à 1000 ft
800 à 1500m
200 à 500 ft
< 800m
< 200 ft
Symboles :   Orages  Brouillard  Fortes neiges  Fortes précipitations  Vent > 20 kt
SIGMETs :   Divers  Orages  Givrage  Turbulence  Onde Orograph.  Cendres Volcan.







- Altitude de l'aérodrome : 465 ft
- Code IATA : LEJ


EDDP - Leipzig Halle

DERNIER METAR :
  • 211850Z 31006KT CAVOK 24/11 Q1021 NOSIG

METARs EXPIRÉS :
  • 211820Z 32008KT CAVOK 25/11 Q1021 NOSIG
  • 211750Z 33009KT CAVOK 25/11 Q1020 NOSIG
  • 211720Z 33008KT CAVOK 26/11 Q1020 NOSIG
  • 211650Z 32010KT 270V340 CAVOK 26/12 Q1020 NOSIG
  • 211620Z 32009KT 290V350 CAVOK 26/12 Q1020 NOSIG

TAF TAF EDDP
Valide du 21 à 18h jusqu'au 22 à 18h UTC


211700Z 2118/2218 31006KT CAVOK
BECMG 2120/2123 21004KT
BECMG 2208/2210 27007KT
Pas de NOTAMs connus pour ce terrain.



MET'MAP, la Météo Aéronautique d'un coup d'oeil ! - Copyright ORBIFLY Décembre 2007 - Disclaimer

ORBIFLY MET'MAP TEAM :

Programmation & Développement : Alexandra Zaïnal
Conception & Développement : Baudouin d'Aumeries
Co-Programmation & Développement : Marc-Olivier Méhu
Soutien technique & logistique : Manuel Goepfert

Contact : metmap@orbifly.com




SOURCES & CREDITS :

   NOAA